createdAt,value
2019-05-16T00:01:29.851Z,1.60
2019-05-16T00:03:57.988Z,1.72
2019-05-16T00:06:25.943Z,1.45
2019-05-16T00:08:55.581Z,2.00
2019-05-16T00:11:27.801Z,1.80
2019-05-16T00:13:57.765Z,2.10
2019-05-16T00:16:25.456Z,1.62
2019-05-16T00:18:53.380Z,1.60
2019-05-16T00:21:21.259Z,1.60
2019-05-16T00:23:51.762Z,1.65
2019-05-16T00:26:19.918Z,1.45
2019-05-16T00:28:48.491Z,1.95
2019-05-16T00:31:18.321Z,1.40
2019-05-16T00:33:48.644Z,2.00
2019-05-16T00:36:16.022Z,1.77
2019-05-16T00:38:43.910Z,1.70
2019-05-16T00:41:18.898Z,1.65
2019-05-16T00:43:48.513Z,1.60
2019-05-16T00:46:20.384Z,2.65
2019-05-16T00:48:49.127Z,1.85
2019-05-16T00:51:18.461Z,1.65
2019-05-16T00:53:48.860Z,1.60
2019-05-16T00:56:18.578Z,1.75
2019-05-16T00:58:48.397Z,1.70
2019-05-16T01:01:19.154Z,1.50
2019-05-16T01:03:49.993Z,1.30
2019-05-16T01:06:22.550Z,1.60
2019-05-16T01:08:48.805Z,1.60
2019-05-16T01:11:18.484Z,1.50
2019-05-16T01:13:48.702Z,1.40
2019-05-16T01:16:18.733Z,1.32
2019-05-16T01:18:48.655Z,1.67
2019-05-16T01:21:18.569Z,1.90
2019-05-16T01:23:48.058Z,1.85
2019-05-16T01:26:15.762Z,4.15
2019-05-16T01:28:48.210Z,1.80
2019-05-16T01:31:15.606Z,1.40
2019-05-16T01:33:43.517Z,1.65
2019-05-16T01:36:14.519Z,1.40
2019-05-16T01:38:44.514Z,1.77
2019-05-16T01:41:12.599Z,1.40
2019-05-16T01:43:40.450Z,1.70
2019-05-16T01:46:08.531Z,1.25
2019-05-16T01:48:38.098Z,1.40
2019-05-16T01:51:08.285Z,1.40
2019-05-16T01:53:36.202Z,1.35
2019-05-16T01:56:04.095Z,1.57
2019-05-16T01:58:31.947Z,1.42
2019-05-16T02:01:12.195Z,1.70
2019-05-16T02:03:35.588Z,1.35
2019-05-16T02:06:03.565Z,1.37
2019-05-16T02:08:32.670Z,1.52
2019-05-16T02:11:00.602Z,1.40
2019-05-16T02:13:28.798Z,1.60
2019-05-16T02:15:59.049Z,1.70
2019-05-16T02:18:28.852Z,1.55
2019-05-16T02:21:01.205Z,1.65
2019-05-16T02:23:29.210Z,1.50
2019-05-16T02:25:59.174Z,1.45
2019-05-16T02:28:33.678Z,1.65
2019-05-16T02:31:01.222Z,1.95
2019-05-16T02:33:31.375Z,1.45
2019-05-16T02:36:04.544Z,1.52
2019-05-16T02:38:33.678Z,1.40
2019-05-16T02:41:03.278Z,1.45
2019-05-16T02:43:31.601Z,1.50
2019-05-16T02:46:01.141Z,1.50
2019-05-16T02:48:31.856Z,1.50
2019-05-16T02:51:01.804Z,1.50
2019-05-16T02:53:31.022Z,1.60
2019-05-16T02:56:01.805Z,1.50
2019-05-16T02:58:30.636Z,1.27
2019-05-16T03:01:01.950Z,1.20
2019-05-16T03:03:31.336Z,1.30
2019-05-16T03:06:01.082Z,1.50
2019-05-16T03:08:31.784Z,1.35
2019-05-16T03:11:01.004Z,1.60
2019-05-16T03:13:31.106Z,1.40
2019-05-16T03:16:00.659Z,1.67
2019-05-16T03:18:31.039Z,1.40
2019-05-16T03:21:00.842Z,1.30
2019-05-16T03:23:30.826Z,1.32
2019-05-16T03:26:00.997Z,1.30
2019-05-16T03:28:30.721Z,1.27
2019-05-16T03:31:04.341Z,1.37
2019-05-16T03:33:39.047Z,1.42
2019-05-16T03:36:04.033Z,1.25
2019-05-16T03:38:30.598Z,1.52
2019-05-16T03:41:00.787Z,1.50
2019-05-16T03:43:30.716Z,1.40
2019-05-16T03:45:57.230Z,1.40
2019-05-16T03:48:25.198Z,1.40
2019-05-16T03:50:53.077Z,1.30
2019-05-16T03:53:21.676Z,1.30
2019-05-16T03:55:51.821Z,1.40
2019-05-16T03:58:22.747Z,1.40
2019-05-16T04:00:53.638Z,1.30
2019-05-16T04:03:22.310Z,1.62
2019-05-16T04:05:52.564Z,1.40
2019-05-16T04:08:25.568Z,1.50
2019-05-16T04:10:53.873Z,1.67
2019-05-16T04:13:22.106Z,1.30
2019-05-16T04:15:52.275Z,1.40
2019-05-16T04:18:22.043Z,1.60
2019-05-16T04:20:52.390Z,1.47
2019-05-16T04:23:21.734Z,1.70
2019-05-16T04:25:52.409Z,1.40
2019-05-16T04:28:21.802Z,1.47
2019-05-16T04:30:50.826Z,1.45
2019-05-16T04:33:21.582Z,1.57
2019-05-16T04:35:52.370Z,1.30
2019-05-16T04:38:31.926Z,1.40
2019-05-16T04:40:53.365Z,1.52
2019-05-16T04:43:24.466Z,1.50
2019-05-16T04:45:52.969Z,1.45
2019-05-16T04:48:22.381Z,1.30
2019-05-16T04:50:53.007Z,2.20
2019-05-16T04:53:23.790Z,1.47
2019-05-16T04:55:52.354Z,1.67
2019-05-16T04:58:23.158Z,1.80
2019-05-16T05:00:51.839Z,1.47
2019-05-16T05:03:20.928Z,1.52
2019-05-16T05:05:52.041Z,1.60
2019-05-16T05:08:21.854Z,1.55
2019-05-16T05:10:51.369Z,1.52
2019-05-16T05:13:22.026Z,1.80
2019-05-16T05:15:50.984Z,1.30
2019-05-16T05:18:21.163Z,1.57
2019-05-16T05:20:51.727Z,1.60
2019-05-16T05:23:20.703Z,1.90
2019-05-16T05:25:47.798Z,1.70
2019-05-16T05:28:15.663Z,1.80
2019-05-16T05:30:43.523Z,1.65
2019-05-16T05:33:11.369Z,2.17
2019-05-16T05:35:40.837Z,1.72
2019-05-16T05:38:10.542Z,2.20
2019-05-16T05:40:40.475Z,1.57
2019-05-16T05:43:10.450Z,2.45
2019-05-16T05:45:40.055Z,1.55
2019-05-16T05:48:07.378Z,1.50
2019-05-16T05:50:36.422Z,1.72
2019-05-16T05:53:04.334Z,1.95
2019-05-16T05:55:32.684Z,2.10
2019-05-16T05:58:01.065Z,1.98
2019-05-16T06:00:30.304Z,1.57
2019-05-16T06:03:00.109Z,1.80
2019-05-16T06:05:30.411Z,1.80
2019-05-16T06:08:00.147Z,1.50
2019-05-16T06:10:27.238Z,1.52
2019-05-16T06:12:55.085Z,1.57
2019-05-16T06:15:22.981Z,2.08
2019-05-16T06:17:51.078Z,1.95
2019-05-16T06:20:20.283Z,1.85
2019-05-16T06:22:50.715Z,1.77
2019-05-16T06:25:22.195Z,1.90
2019-05-16T06:27:47.545Z,1.90
2019-05-16T06:30:15.968Z,2.00
2019-05-16T06:32:43.804Z,1.40
2019-05-16T06:35:11.626Z,1.80
2019-05-16T06:37:40.687Z,1.87
2019-05-16T06:40:11.025Z,2.00
2019-05-16T06:42:40.235Z,1.62
2019-05-16T06:45:10.394Z,2.05
2019-05-16T06:47:39.631Z,1.82
2019-05-16T06:50:08.084Z,3.35
2019-05-16T06:52:36.065Z,1.85
2019-05-16T06:55:04.146Z,2.08
2019-05-16T06:57:31.989Z,1.80
2019-05-16T07:00:00.726Z,1.90
2019-05-16T07:02:33.742Z,2.12
2019-05-16T07:05:01.130Z,2.60
2019-05-16T07:07:30.764Z,2.10
2019-05-16T07:10:04.146Z,2.05
2019-05-16T07:12:31.517Z,1.90
2019-05-16T07:15:00.970Z,2.00
2019-05-16T07:17:27.535Z,2.75
2019-05-16T07:19:55.379Z,1.80
2019-05-16T07:22:23.186Z,2.10
2019-05-16T07:24:51.186Z,1.70
2019-05-16T07:27:21.905Z,1.98
2019-05-16T07:29:50.843Z,1.87
2019-05-16T07:32:19.839Z,2.50
2019-05-16T07:34:49.830Z,1.70
2019-05-16T07:37:19.894Z,1.75
2019-05-16T07:39:46.962Z,2.02
2019-05-16T07:42:14.797Z,2.20
2019-05-16T07:44:42.682Z,1.90
2019-05-16T07:47:11.223Z,1.85
2019-05-16T07:49:40.724Z,2.08
2019-05-16T07:52:09.911Z,2.17
2019-05-16T07:54:40.469Z,1.60
2019-05-16T07:57:15.567Z,2.58
2019-05-16T07:59:37.043Z,2.10
2019-05-16T08:02:04.858Z,1.92
2019-05-16T08:04:32.726Z,1.92
2019-05-16T08:07:00.851Z,2.30
2019-05-16T08:09:30.617Z,1.60
2019-05-16T08:11:58.365Z,1.85
2019-05-16T08:14:26.228Z,2.10
2019-05-16T08:16:54.098Z,2.50
2019-05-16T08:19:25.162Z,1.87
2019-05-16T08:21:51.496Z,2.30
2019-05-16T08:24:20.530Z,2.87
2019-05-16T08:26:51.346Z,2.72
2019-05-16T08:29:18.166Z,2.10
2019-05-16T08:31:45.990Z,1.70
2019-05-16T08:34:13.801Z,2.25
2019-05-16T08:36:41.706Z,2.05
2019-05-16T08:39:11.099Z,2.10
2019-05-16T08:41:42.409Z,1.90
2019-05-16T08:44:12.207Z,2.10
2019-05-16T08:49:12.000Z,2.02
2019-05-16T08:51:37.440Z,2.00
2019-05-16T08:54:05.259Z,2.33
2019-05-16T08:56:33.084Z,2.25
2019-05-16T08:59:02.695Z,1.95
2019-05-16T09:01:35.019Z,1.95
2019-05-16T09:04:01.405Z,1.90
2019-05-16T09:06:32.022Z,2.00
2019-05-16T09:09:20.577Z,2.22
2019-05-16T09:10:31.604Z,1.98
2019-05-16T09:11:40.478Z,2.12
2019-05-16T09:14:01.570Z,1.90
2019-05-16T09:16:29.458Z,1.98
2019-05-16T09:18:57.679Z,2.10
2019-05-16T09:21:27.532Z,2.08
2019-05-16T09:23:57.785Z,2.37
2019-05-16T09:26:27.755Z,2.30
2019-05-16T09:28:57.210Z,1.72
2019-05-16T09:31:27.535Z,2.30
2019-05-16T09:33:56.764Z,1.90
2019-05-16T09:36:24.478Z,2.10
2019-05-16T09:38:52.348Z,1.95
2019-05-16T09:41:20.210Z,1.70
2019-05-16T09:43:48.996Z,1.70
2019-05-16T09:46:17.329Z,1.90
2019-05-16T09:48:47.727Z,1.80
2019-05-16T09:51:20.983Z,2.45
2019-05-16T09:53:47.262Z,1.90
2019-05-16T09:56:16.783Z,1.50
2019-05-16T09:58:46.772Z,3.40
2019-05-16T10:01:17.378Z,2.10
2019-05-16T10:03:47.825Z,2.10
2019-05-16T10:06:18.996Z,2.20
2019-05-16T10:08:46.395Z,2.08
2019-05-16T10:11:17.849Z,2.60
2019-05-16T10:13:46.930Z,1.92
2019-05-16T10:16:16.739Z,2.10
2019-05-16T10:18:44.402Z,1.90
2019-05-16T10:21:19.883Z,1.85
2019-05-16T10:23:46.815Z,2.30
2019-05-16T10:26:17.254Z,1.80
2019-05-16T10:28:46.831Z,1.80
2019-05-16T10:31:17.610Z,2.30
2019-05-16T10:33:47.862Z,2.22
2019-05-16T10:36:17.227Z,2.25
2019-05-16T10:38:48.285Z,1.98
2019-05-16T10:41:15.197Z,2.45
2019-05-16T10:43:47.434Z,2.45
2019-05-16T10:46:17.784Z,2.40
2019-05-16T10:48:46.929Z,2.37
2019-05-16T10:51:16.891Z,2.80
2019-05-16T10:54:05.778Z,2.35
2019-05-16T10:56:16.390Z,2.20
2019-05-16T10:59:04.934Z,2.20
2019-05-16T11:01:24.495Z,3.12
2019-05-16T11:03:48.901Z,2.55
2019-05-16T11:06:25.640Z,3.95
2019-05-16T11:08:52.821Z,2.80
2019-05-16T11:11:20.663Z,2.55
2019-05-16T11:13:51.038Z,2.40
2019-05-16T11:16:18.250Z,2.52
2019-05-16T11:18:46.634Z,2.37
2019-05-16T11:21:18.940Z,3.05
2019-05-16T11:23:44.221Z,3.15
2019-05-16T11:26:13.869Z,3.00
2019-05-16T11:28:41.810Z,3.10
2019-05-16T11:31:10.980Z,3.80
2019-05-16T11:33:39.813Z,2.70
2019-05-16T11:36:12.018Z,2.80
2019-05-16T11:38:40.017Z,3.05
2019-05-16T11:41:07.955Z,2.62
2019-05-16T11:43:36.697Z,2.50
2019-05-16T11:46:05.101Z,2.75
2019-05-16T11:48:33.001Z,3.30
2019-05-16T11:51:06.836Z,3.42
2019-05-16T11:53:33.951Z,3.40
2019-05-16T11:56:03.047Z,2.90
2019-05-16T11:58:31.042Z,3.00
2019-05-16T12:00:58.963Z,3.70
2019-05-16T12:03:28.262Z,2.85
2019-05-16T12:05:57.964Z,2.50
2019-05-16T12:08:26.455Z,2.83
2019-05-16T12:10:54.477Z,3.17
2019-05-16T12:13:31.800Z,3.42
2019-05-16T12:15:51.859Z,3.20
2019-05-16T12:18:19.739Z,3.35
2019-05-16T12:20:47.575Z,2.80
2019-05-16T12:23:17.160Z,2.85
2019-05-16T12:25:47.357Z,3.00
2019-05-16T12:28:16.674Z,2.95
2019-05-16T12:30:44.080Z,3.30
2019-05-16T12:33:11.941Z,2.90
2019-05-16T12:35:39.752Z,3.35
2019-05-16T12:38:08.259Z,2.80
2019-05-16T12:40:37.593Z,3.47
2019-05-16T12:43:07.826Z,3.15
2019-05-16T12:45:35.370Z,3.75
2019-05-16T12:48:03.474Z,4.12
2019-05-16T12:50:31.332Z,3.33
2019-05-16T12:52:59.172Z,3.15
2019-05-16T12:55:27.185Z,3.65
2019-05-16T12:57:58.892Z,3.27
2019-05-16T13:00:27.488Z,3.17
2019-05-16T13:02:54.297Z,3.15
2019-05-16T13:05:23.042Z,3.58
2019-05-16T13:07:50.896Z,2.90
2019-05-16T13:10:19.049Z,3.55
2019-05-16T13:12:46.892Z,3.37
2019-05-16T13:15:17.972Z,3.22
2019-05-16T13:17:47.155Z,4.03
2019-05-16T13:20:14.030Z,3.45
2019-05-16T13:22:41.885Z,3.75
2019-05-16T13:25:10.138Z,3.87
2019-05-16T13:27:37.986Z,3.98
2019-05-16T13:30:07.302Z,3.45
2019-05-16T13:32:37.406Z,3.60
2019-05-16T13:35:07.435Z,3.70
2019-05-16T13:37:34.588Z,3.30
2019-05-16T13:40:02.497Z,3.90
2019-05-16T13:42:30.325Z,2.90
2019-05-16T13:44:58.209Z,3.85
2019-05-16T13:47:26.861Z,3.60
2019-05-16T13:49:54.892Z,3.83
2019-05-16T13:52:22.774Z,5.50
2019-05-16T13:54:50.618Z,5.10
2019-05-16T13:57:18.462Z,2.90
2019-05-16T13:59:46.368Z,4.20
2019-05-16T14:02:14.207Z,4.20
2019-05-16T14:04:42.090Z,4.25
2019-05-16T14:07:09.996Z,3.80
2019-05-16T14:09:38.068Z,3.80
2019-05-16T14:12:06.720Z,4.22
2019-05-16T14:14:41.258Z,4.53
2019-05-16T14:17:04.337Z,4.22
2019-05-16T14:19:33.841Z,4.50
2019-05-16T14:22:01.731Z,4.80
2019-05-16T14:24:29.574Z,4.20
2019-05-16T14:26:57.450Z,4.03
2019-05-16T14:29:27.743Z,4.20
2019-05-16T14:31:56.772Z,3.37
2019-05-16T14:34:27.668Z,3.27
2019-05-16T14:36:54.274Z,3.80
2019-05-16T14:39:22.146Z,3.60
2019-05-16T14:41:49.995Z,3.45
2019-05-16T14:44:18.452Z,3.55
2019-05-16T14:46:47.537Z,4.08
2019-05-16T14:49:17.207Z,3.92
2019-05-16T14:51:47.713Z,3.83
2019-05-16T14:54:14.926Z,3.92
2019-05-16T14:56:42.809Z,4.05
2019-05-16T14:59:10.744Z,4.40
2019-05-16T15:01:38.649Z,4.45
2019-05-16T15:04:07.341Z,3.45
2019-05-16T15:06:37.610Z,4.10
2019-05-16T15:09:07.517Z,4.30
2019-05-16T15:11:35.626Z,4.17
2019-05-16T15:14:03.483Z,4.30
2019-05-16T15:16:31.344Z,4.15
2019-05-16T15:18:59.166Z,4.72
2019-05-16T15:21:27.020Z,3.70
2019-05-16T15:23:59.352Z,4.50
2019-05-16T15:26:26.845Z,3.90
2019-05-16T15:28:54.034Z,4.85
2019-05-16T15:31:21.853Z,3.90
2019-05-16T15:33:49.702Z,3.55
2019-05-16T15:36:17.558Z,4.15
2019-05-16T15:38:47.223Z,4.37
2019-05-16T15:41:17.127Z,4.30
2019-05-16T15:43:44.675Z,4.70
2019-05-16T15:46:12.522Z,3.72
2019-05-16T15:48:40.461Z,5.15
2019-05-16T15:51:09.127Z,5.00
2019-05-16T15:53:37.931Z,3.65
2019-05-16T15:56:09.642Z,4.47
2019-05-16T15:58:37.393Z,4.95
2019-05-16T16:01:07.043Z,4.55
2019-05-16T16:03:38.220Z,4.50
2019-05-16T16:06:06.819Z,4.60
2019-05-16T16:08:37.156Z,4.45
2019-05-16T16:11:07.052Z,5.58
2019-05-16T16:13:34.098Z,4.65
2019-05-16T16:16:02.001Z,6.55
2019-05-16T16:18:29.911Z,5.87
2019-05-16T16:20:57.746Z,5.45
2019-05-16T16:23:27.294Z,4.72
2019-05-16T16:25:59.284Z,5.50
2019-05-16T16:28:27.089Z,5.83
2019-05-16T16:30:56.756Z,6.03
2019-05-16T16:33:28.981Z,6.20
2019-05-16T16:35:53.550Z,7.40
2019-05-16T16:38:21.757Z,7.45
2019-05-16T16:40:49.604Z,7.20
2019-05-16T16:43:17.462Z,7.42
2019-05-16T16:45:47.669Z,7.65
2019-05-16T16:48:17.131Z,8.25
2019-05-16T16:50:44.485Z,7.05
2019-05-16T16:53:12.319Z,8.15
2019-05-16T16:55:40.199Z,8.83
2019-05-16T16:58:09.581Z,8.83
2019-05-16T17:00:38.175Z,8.55
2019-05-16T17:03:09.930Z,8.13
2019-05-16T17:05:37.186Z,9.05
2019-05-16T17:08:07.671Z,9.50
2019-05-16T17:10:38.204Z,9.35
2019-05-16T17:13:08.911Z,10.18
2019-05-16T17:15:38.602Z,10.10
2019-05-16T17:18:07.150Z,8.93
2019-05-16T17:20:38.811Z,10.55
2019-05-16T17:23:07.077Z,10.25
2019-05-16T17:25:36.695Z,11.55
2019-05-16T17:28:07.359Z,11.25
2019-05-16T17:30:41.643Z,11.30
2019-05-16T17:33:13.838Z,12.30
2019-05-16T17:35:42.875Z,11.53
2019-05-16T17:38:10.823Z,12.13
2019-05-16T17:40:38.733Z,13.00
2019-05-16T17:43:10.758Z,11.95
2019-05-16T17:45:40.725Z,12.40
2019-05-16T17:48:08.827Z,14.30
2019-05-16T17:50:37.586Z,14.87
2019-05-16T17:53:07.040Z,13.50
2019-05-16T17:55:36.930Z,12.25
2019-05-16T17:58:09.220Z,12.30
2019-05-16T18:00:38.123Z,13.83
2019-05-16T18:03:06.769Z,12.37
2019-05-16T18:05:36.969Z,14.35
2019-05-16T18:08:07.480Z,13.83
2019-05-16T18:10:36.474Z,14.55
2019-05-16T18:13:07.691Z,14.03
2019-05-16T18:15:36.654Z,14.85
2019-05-16T18:18:07.214Z,14.70
2019-05-16T18:20:37.655Z,16.42
2019-05-16T18:23:06.992Z,15.60
2019-05-16T18:25:36.426Z,14.43
2019-05-16T18:28:07.454Z,15.28
2019-05-16T18:30:36.657Z,16.23
2019-05-16T18:33:04.277Z,15.45
2019-05-16T18:35:32.527Z,14.40
2019-05-16T18:38:01.124Z,14.23
2019-05-16T18:40:29.529Z,14.70
2019-05-16T18:42:57.643Z,15.25
2019-05-16T18:45:27.022Z,14.80
2019-05-16T18:47:57.037Z,15.40
2019-05-16T18:50:26.677Z,14.10
2019-05-16T18:52:56.958Z,14.95
2019-05-16T18:55:26.350Z,15.65
2019-05-16T18:57:54.382Z,17.25
2019-05-16T19:00:22.384Z,16.45
2019-05-16T19:02:50.471Z,14.70
2019-05-16T19:05:18.713Z,19.82
2019-05-16T19:07:47.618Z,22.10
2019-05-16T19:10:17.671Z,18.30
2019-05-16T19:12:47.691Z,17.52
2019-05-16T19:15:17.753Z,16.75
2019-05-16T19:17:45.202Z,17.95
2019-05-16T19:20:13.543Z,17.05
2019-05-16T19:22:41.401Z,16.95
2019-05-16T19:25:09.558Z,16.42
2019-05-16T19:27:37.401Z,15.28
2019-05-16T19:30:06.384Z,16.15
2019-05-16T19:32:38.998Z,17.60
2019-05-16T19:35:06.838Z,15.38
2019-05-16T19:37:38.019Z,16.80
2019-05-16T19:40:06.397Z,17.45
2019-05-16T19:42:36.790Z,16.55
2019-05-16T19:45:04.717Z,17.87
2019-05-16T19:47:37.151Z,15.28
2019-05-16T19:50:03.075Z,15.38
2019-05-16T19:52:31.604Z,17.20
2019-05-16T19:55:00.457Z,16.85
2019-05-16T19:57:29.487Z,15.65
2019-05-16T20:00:05.656Z,17.07
2019-05-16T20:02:36.930Z,15.98
2019-05-16T20:05:05.112Z,15.75
2019-05-16T20:07:34.342Z,15.95
2019-05-16T20:10:02.438Z,16.93
2019-05-16T20:12:31.903Z,16.15
2019-05-16T20:15:07.985Z,17.20
2019-05-16T20:17:29.933Z,20.05
2019-05-16T20:20:01.550Z,15.90
2019-05-16T20:22:29.595Z,19.12
2019-05-16T20:25:01.917Z,17.90
2019-05-16T20:27:31.386Z,19.77
2019-05-16T20:29:59.500Z,19.23
2019-05-16T20:32:27.665Z,21.10
2019-05-16T20:34:55.561Z,19.30
2019-05-16T20:37:23.555Z,20.88
2019-05-16T20:39:51.473Z,20.90
2019-05-16T20:42:19.389Z,21.10
2019-05-16T20:44:49.688Z,20.72
2019-05-16T20:47:17.956Z,21.80
2019-05-16T20:49:50.638Z,20.08
2019-05-16T20:52:18.951Z,22.90
2019-05-16T20:54:49.881Z,19.98
2019-05-16T20:57:23.953Z,20.30
2019-05-16T20:59:51.974Z,20.43
2019-05-16T21:02:20.772Z,21.30
2019-05-16T21:04:49.997Z,21.35
2019-05-16T21:07:18.375Z,21.95
2019-05-16T21:09:46.513Z,21.77
2019-05-16T21:12:17.236Z,21.10
2019-05-16T21:14:45.762Z,21.60
2019-05-16T21:17:17.266Z,22.52
2019-05-16T21:19:44.919Z,22.22
2019-05-16T21:22:16.250Z,22.93
2019-05-16T21:24:46.649Z,20.00
2019-05-16T21:27:18.679Z,21.50
2019-05-16T21:29:47.191Z,20.95
2019-05-16T21:32:16.242Z,23.60
2019-05-16T21:34:46.879Z,21.95
2019-05-16T21:37:17.955Z,20.65
2019-05-16T21:39:47.642Z,22.82
2019-05-16T21:42:16.589Z,24.20
2019-05-16T21:44:46.670Z,23.92
2019-05-16T21:47:16.878Z,22.93
2019-05-16T21:49:47.191Z,24.18
2019-05-16T21:52:17.530Z,25.15
2019-05-16T21:54:47.207Z,24.10
2019-05-16T21:57:19.720Z,24.90
2019-05-16T21:59:47.742Z,23.10
2019-05-16T22:02:16.879Z,24.12
2019-05-16T22:04:47.402Z,24.47
2019-05-16T22:07:16.586Z,23.50
2019-05-16T22:09:46.716Z,24.00
2019-05-16T22:12:17.176Z,21.95
2019-05-16T22:14:47.534Z,24.20
2019-05-16T22:17:16.916Z,22.67
2019-05-16T22:19:46.970Z,20.90
2019-05-16T22:22:16.535Z,21.42
2019-05-16T22:24:46.196Z,22.32
2019-05-16T22:27:18.180Z,22.20
2019-05-16T22:29:50.441Z,22.65
2019-05-16T22:32:19.866Z,21.55
2019-05-16T22:34:47.798Z,22.70
2019-05-16T22:37:17.168Z,22.93
2019-05-16T22:39:46.526Z,21.07
2019-05-16T22:42:14.588Z,21.93
2019-05-16T22:44:46.932Z,22.27
2019-05-16T22:47:17.101Z,21.20
2019-05-16T22:49:44.636Z,20.50
2019-05-16T22:52:12.646Z,21.60
2019-05-16T22:54:41.694Z,21.75
2019-05-16T22:57:09.710Z,22.20
2019-05-16T22:59:40.486Z,23.73
2019-05-16T23:02:12.107Z,23.87
2019-05-16T23:04:40.314Z,22.02
2019-05-16T23:07:10.819Z,21.52
2019-05-16T23:09:38.729Z,22.25
2019-05-16T23:12:08.683Z,25.65
2019-05-16T23:14:36.635Z,21.65
2019-05-16T23:17:06.634Z,22.70
2019-05-16T23:19:37.037Z,21.30
2019-05-16T23:22:07.352Z,20.23
2019-05-16T23:24:37.417Z,20.35
2019-05-16T23:27:06.926Z,22.45
2019-05-16T23:29:37.298Z,19.27
2019-05-16T23:32:07.301Z,21.90
2019-05-16T23:34:37.122Z,18.85
2019-05-16T23:37:06.455Z,18.60
2019-05-16T23:39:34.534Z,18.73
2019-05-16T23:42:06.233Z,20.95
2019-05-16T23:44:33.684Z,19.25
2019-05-16T23:47:09.569Z,19.27
2019-05-16T23:49:39.823Z,19.65
2019-05-16T23:52:07.810Z,17.60
2019-05-16T23:54:38.298Z,20.20
2019-05-16T23:57:13.343Z,18.85
2019-05-16T23:59:42.650Z,18.42
